sensor_id;sensor_type;location;lat;lon;timestamp;temperature;humidity
22676;DHT22;12521;43.310;21.876;2022-10-31T00:02:49;11.4;96.0
22676;DHT22;12521;43.310;21.876;2022-10-31T00:07:26;11.4;96.0
22676;DHT22;12521;43.310;21.876;2022-10-31T00:12:03;11.3;96.0
22676;DHT22;12521;43.310;21.876;2022-10-31T00:16:40;11.3;96.0
22676;DHT22;12521;43.310;21.876;2022-10-31T00:21:18;11.2;96.0
22676;DHT22;12521;43.310;21.876;2022-10-31T00:26:01;11.2;96.0
22676;DHT22;12521;43.310;21.876;2022-10-31T00:30:40;11.2;96.0
22676;DHT22;12521;43.310;21.876;2022-10-31T00:35:17;11.0;96.0
22676;DHT22;12521;43.310;21.876;2022-10-31T00:39:54;11.0;96.0
22676;DHT22;12521;43.310;21.876;2022-10-31T00:44:31;10.9;96.0
22676;DHT22;12521;43.310;21.876;2022-10-31T00:49:07;10.9;96.0
22676;DHT22;12521;43.310;21.876;2022-10-31T00:53:44;10.9;96.0
22676;DHT22;12521;43.310;21.876;2022-10-31T00:58:21;10.9;96.0
22676;DHT22;12521;43.310;21.876;2022-10-31T01:02:58;10.8;96.0
22676;DHT22;12521;43.310;21.876;2022-10-31T01:07:36;10.8;96.0
22676;DHT22;12521;43.310;21.876;2022-10-31T01:12:17;10.8;96.0
22676;DHT22;12521;43.310;21.876;2022-10-31T01:16:53;10.8;96.0
22676;DHT22;12521;43.310;21.876;2022-10-31T01:21:30;10.8;96.0
22676;DHT22;12521;43.310;21.876;2022-10-31T01:26:14;10.8;96.0
22676;DHT22;12521;43.310;21.876;2022-10-31T01:31:02;10.8;96.0
22676;DHT22;12521;43.310;21.876;2022-10-31T01:35:45;10.8;96.0
22676;DHT22;12521;43.310;21.876;2022-10-31T01:40:22;10.8;96.0
22676;DHT22;12521;43.310;21.876;2022-10-31T01:45:01;10.7;96.0
22676;DHT22;12521;43.310;21.876;2022-10-31T01:49:51;10.7;96.0
22676;DHT22;12521;43.310;21.876;2022-10-31T01:54:51;10.6;96.0
22676;DHT22;12521;43.310;21.876;2022-10-31T01:59:49;10.6;96.0
22676;DHT22;12521;43.310;21.876;2022-10-31T02:04:40;10.6;96.0
22676;DHT22;12521;43.310;21.876;2022-10-31T02:09:20;10.6;96.0
22676;DHT22;12521;43.310;21.876;2022-10-31T02:14:03;10.5;96.0
22676;DHT22;12521;43.310;21.876;2022-10-31T02:18:40;10.5;96.0
22676;DHT22;12521;43.310;21.876;2022-10-31T02:24:23;10.4;96.0
22676;DHT22;12521;43.310;21.876;2022-10-31T02:30:06;10.4;96.0
22676;DHT22;12521;43.310;21.876;2022-10-31T02:35:16;10.4;96.0
22676;DHT22;12521;43.310;21.876;2022-10-31T02:40:33;10.4;96.0
22676;DHT22;12521;43.310;21.876;2022-10-31T02:45:43;10.3;96.0
22676;DHT22;12521;43.310;21.876;2022-10-31T02:50:43;10.3;96.0
22676;DHT22;12521;43.310;21.876;2022-10-31T02:56:12;10.3;96.0
22676;DHT22;12521;43.310;21.876;2022-10-31T03:01:24;10.3;96.0
22676;DHT22;12521;43.310;21.876;2022-10-31T03:07:01;10.3;96.0
22676;DHT22;12521;43.310;21.876;2022-10-31T03:12:17;10.2;96.0
22676;DHT22;12521;43.310;21.876;2022-10-31T03:17:27;10.2;96.0
22676;DHT22;12521;43.310;21.876;2022-10-31T03:22:37;10.2;96.0
22676;DHT22;12521;43.310;21.876;2022-10-31T03:27:26;10.2;96.0
22676;DHT22;12521;43.310;21.876;2022-10-31T03:32:18;10.1;96.0
22676;DHT22;12521;43.310;21.876;2022-10-31T03:37:10;10.1;96.0
22676;DHT22;12521;43.310;21.876;2022-10-31T03:42:02;10.1;96.0
22676;DHT22;12521;43.310;21.876;2022-10-31T03:46:51;10.1;96.0
22676;DHT22;12521;43.310;21.876;2022-10-31T03:51:42;9.8;96.0
22676;DHT22;12521;43.310;21.876;2022-10-31T03:56:53;9.8;96.0
22676;DHT22;12521;43.310;21.876;2022-10-31T04:02:02;9.6;96.0
22676;DHT22;12521;43.310;21.876;2022-10-31T04:06:58;9.6;96.0
22676;DHT22;12521;43.310;21.876;2022-10-31T04:11:51;9.7;96.0
22676;DHT22;12521;43.310;21.876;2022-10-31T04:16:44;9.7;96.0
22676;DHT22;12521;43.310;21.876;2022-10-31T04:21:28;9.8;96.0
22676;DHT22;12521;43.310;21.876;2022-10-31T04:26:11;9.8;96.0
22676;DHT22;12521;43.310;21.876;2022-10-31T04:30:49;9.8;96.0
22676;DHT22;12521;43.310;21.876;2022-10-31T04:35:27;9.7;96.0
22676;DHT22;12521;43.310;21.876;2022-10-31T04:40:06;9.7;96.0
22676;DHT22;12521;43.310;21.876;2022-10-31T04:44:46;9.6;96.0
22676;DHT22;12521;43.310;21.876;2022-10-31T04:49:23;9.6;96.0
22676;DHT22;12521;43.310;21.876;2022-10-31T04:53:59;9.6;96.0
22676;DHT22;12521;43.310;21.876;2022-10-31T04:58:36;9.6;96.0
22676;DHT22;12521;43.310;21.876;2022-10-31T05:03:12;9.6;96.0
22676;DHT22;12521;43.310;21.876;2022-10-31T05:07:51;9.6;96.0
22676;DHT22;12521;43.310;21.876;2022-10-31T05:12:29;9.5;96.0
22676;DHT22;12521;43.310;21.876;2022-10-31T05:17:06;9.5;96.0
22676;DHT22;12521;43.310;21.876;2022-10-31T05:21:42;9.4;96.0
22676;DHT22;12521;43.310;21.876;2022-10-31T05:26:19;9.4;96.0
22676;DHT22;12521;43.310;21.876;2022-10-31T05:30:55;9.4;96.0
22676;DHT22;12521;43.310;21.876;2022-10-31T05:35:33;9.4;96.0
22676;DHT22;12521;43.310;21.876;2022-10-31T05:40:13;9.4;96.0
22676;DHT22;12521;43.310;21.876;2022-10-31T05:44:58;9.5;96.0
22676;DHT22;12521;43.310;21.876;2022-10-31T05:49:35;9.5;96.0
22676;DHT22;12521;43.310;21.876;2022-10-31T05:54:12;9.6;96.0
22676;DHT22;12521;43.310;21.876;2022-10-31T05:58:48;9.6;96.0
22676;DHT22;12521;43.310;21.876;2022-10-31T06:03:25;9.6;96.0
22676;DHT22;12521;43.310;21.876;2022-10-31T06:08:02;9.6;96.0
22676;DHT22;12521;43.310;21.876;2022-10-31T06:12:39;9.6;96.0
22676;DHT22;12521;43.310;21.876;2022-10-31T06:17:15;9.6;96.0
22676;DHT22;12521;43.310;21.876;2022-10-31T06:21:52;9.6;96.0
22676;DHT22;12521;43.310;21.876;2022-10-31T06:26:29;9.6;96.0
22676;DHT22;12521;43.310;21.876;2022-10-31T06:31:06;9.6;96.0
22676;DHT22;12521;43.310;21.876;2022-10-31T06:35:45;9.6;96.0
22676;DHT22;12521;43.310;21.876;2022-10-31T06:40:23;9.6;96.0
22676;DHT22;12521;43.310;21.876;2022-10-31T06:45:00;9.6;96.0
22676;DHT22;12521;43.310;21.876;2022-10-31T06:49:38;9.6;96.0
22676;DHT22;12521;43.310;21.876;2022-10-31T06:54:20;9.8;96.0
22676;DHT22;12521;43.310;21.876;2022-10-31T06:58:57;9.8;96.0
22676;DHT22;12521;43.310;21.876;2022-10-31T07:03:35;9.9;96.0
22676;DHT22;12521;43.310;21.876;2022-10-31T07:08:14;9.9;96.0
22676;DHT22;12521;43.310;21.876;2022-10-31T07:12:54;10.0;96.0
22676;DHT22;12521;43.310;21.876;2022-10-31T07:17:35;10.0;96.0
22676;DHT22;12521;43.310;21.876;2022-10-31T07:22:12;10.2;96.0
22676;DHT22;12521;43.310;21.876;2022-10-31T07:26:49;10.2;96.0
22676;DHT22;12521;43.310;21.876;2022-10-31T07:31:26;10.2;96.0
22676;DHT22;12521;43.310;21.876;2022-10-31T07:36:03;10.4;96.0
22676;DHT22;12521;43.310;21.876;2022-10-31T07:40:43;10.4;96.0
22676;DHT22;12521;43.310;21.876;2022-10-31T07:45:20;10.6;96.0
22676;DHT22;12521;43.310;21.876;2022-10-31T07:49:57;10.6;96.0
22676;DHT22;12521;43.310;21.876;2022-10-31T07:54:34;10.8;96.0
22676;DHT22;12521;43.310;21.876;2022-10-31T07:59:10;10.8;96.0
22676;DHT22;12521;43.310;21.876;2022-10-31T08:03:47;11.1;96.0
22676;DHT22;12521;43.310;21.876;2022-10-31T08:08:23;11.1;96.0
22676;DHT22;12521;43.310;21.876;2022-10-31T08:13:05;11.4;96.0
22676;DHT22;12521;43.310;21.876;2022-10-31T08:17:48;11.4;96.0
22676;DHT22;12521;43.310;21.876;2022-10-31T08:22:24;11.6;96.0
22676;DHT22;12521;43.310;21.876;2022-10-31T08:27:01;11.6;96.0
22676;DHT22;12521;43.310;21.876;2022-10-31T08:31:38;11.9;96.0
22676;DHT22;12521;43.310;21.876;2022-10-31T08:36:16;11.9;96.0
22676;DHT22;12521;43.310;21.876;2022-10-31T08:40:52;11.9;96.0
22676;DHT22;12521;43.310;21.876;2022-10-31T08:45:32;12.2;96.0
22676;DHT22;12521;43.310;21.876;2022-10-31T08:50:11;12.2;96.0
22676;DHT22;12521;43.310;21.876;2022-10-31T08:54:47;12.4;96.0
22676;DHT22;12521;43.310;21.876;2022-10-31T08:59:28;12.4;96.0
22676;DHT22;12521;43.310;21.876;2022-10-31T09:04:05;12.7;96.0
22676;DHT22;12521;43.310;21.876;2022-10-31T09:08:42;12.7;96.0
22676;DHT22;12521;43.310;21.876;2022-10-31T09:13:21;13.0;96.0
22676;DHT22;12521;43.310;21.876;2022-10-31T09:17:58;13.0;96.0
22676;DHT22;12521;43.310;21.876;2022-10-31T09:22:36;13.4;96.0
22676;DHT22;12521;43.310;21.876;2022-10-31T09:27:12;13.4;96.0
22676;DHT22;12521;43.310;21.876;2022-10-31T09:31:49;13.8;96.0
22676;DHT22;12521;43.310;21.876;2022-10-31T09:36:26;13.8;96.0
22676;DHT22;12521;43.310;21.876;2022-10-31T09:41:18;13.8;96.0
22676;DHT22;12521;43.310;21.876;2022-10-31T09:46:48;14.1;96.0
22676;DHT22;12521;43.310;21.876;2022-10-31T09:52:10;14.4;96.0
22676;DHT22;12521;43.310;21.876;2022-10-31T09:57:14;14.4;96.0
22676;DHT22;12521;43.310;21.876;2022-10-31T10:02:20;14.8;96.0
22676;DHT22;12521;43.310;21.876;2022-10-31T10:07:29;14.8;96.0
22676;DHT22;12521;43.310;21.876;2022-10-31T10:12:57;15.2;96.0
22676;DHT22;12521;43.310;21.876;2022-10-31T10:18:35;15.2;96.0
22676;DHT22;12521;43.310;21.876;2022-10-31T10:24:04;15.7;96.0
22676;DHT22;12521;43.310;21.876;2022-10-31T10:29:33;15.7;96.0
22676;DHT22;12521;43.310;21.876;2022-10-31T10:34:33;16.2;96.0
22676;DHT22;12521;43.310;21.876;2022-10-31T10:39:32;16.2;96.0
22676;DHT22;12521;43.310;21.876;2022-10-31T10:44:23;16.6;96.0
22676;DHT22;12521;43.310;21.876;2022-10-31T10:49:16;16.6;96.0
22676;DHT22;12521;43.310;21.876;2022-10-31T10:54:33;17.0;96.0
22676;DHT22;12521;43.310;21.876;2022-10-31T10:59:32;17.0;96.0
22676;DHT22;12521;43.310;21.876;2022-10-31T11:04:30;17.5;96.0
22676;DHT22;12521;43.310;21.876;2022-10-31T11:09:11;17.5;96.0
22676;DHT22;12521;43.310;21.876;2022-10-31T11:14:02;17.8;96.0
22676;DHT22;12521;43.310;21.876;2022-10-31T11:18:53;17.8;96.0
22676;DHT22;12521;43.310;21.876;2022-10-31T11:24:04;18.2;96.0
22676;DHT22;12521;43.310;21.876;2022-10-31T11:28:59;18.2;96.0
22676;DHT22;12521;43.310;21.876;2022-10-31T11:33:49;18.4;96.0
22676;DHT22;12521;43.310;21.876;2022-10-31T11:38:42;18.4;96.0
22676;DHT22;12521;43.310;21.876;2022-10-31T11:43:22;18.7;96.0
22676;DHT22;12521;43.310;21.876;2022-10-31T11:48:12;18.7;96.0
22676;DHT22;12521;43.310;21.876;2022-10-31T11:52:58;19.0;96.0
22676;DHT22;12521;43.310;21.876;2022-10-31T11:57:45;19.0;96.0
22676;DHT22;12521;43.310;21.876;2022-10-31T12:02:30;19.2;96.0
22676;DHT22;12521;43.310;21.876;2022-10-31T12:07:07;19.2;96.0
22676;DHT22;12521;43.310;21.876;2022-10-31T12:12:09;19.4;96.0
22676;DHT22;12521;43.310;21.876;2022-10-31T12:17:27;19.4;96.0
22676;DHT22;12521;43.310;21.876;2022-10-31T12:22:44;19.5;96.0
22676;DHT22;12521;43.310;21.876;2022-10-31T12:28:11;19.5;96.0
22676;DHT22;12521;43.310;21.876;2022-10-31T12:34:12;19.7;96.0
22676;DHT22;12521;43.310;21.876;2022-10-31T12:40:15;19.7;96.0
22676;DHT22;12521;43.310;21.876;2022-10-31T12:45:53;19.9;96.0
22676;DHT22;12521;43.310;21.876;2022-10-31T12:50:54;19.9;96.0
22676;DHT22;12521;43.310;21.876;2022-10-31T12:56:17;20.0;96.0
22676;DHT22;12521;43.310;21.876;2022-10-31T13:01:34;20.0;96.0
22676;DHT22;12521;43.310;21.876;2022-10-31T13:06:35;20.2;96.0
22676;DHT22;12521;43.310;21.876;2022-10-31T13:11:38;20.2;96.0
22676;DHT22;12521;43.310;21.876;2022-10-31T13:16:39;20.3;96.0
22676;DHT22;12521;43.310;21.876;2022-10-31T13:21:30;20.3;96.0
22676;DHT22;12521;43.310;21.876;2022-10-31T13:26:37;20.4;96.0
22676;DHT22;12521;43.310;21.876;2022-10-31T13:31:25;20.4;96.0
22676;DHT22;12521;43.310;21.876;2022-10-31T13:36:24;20.5;96.0
22676;DHT22;12521;43.310;21.876;2022-10-31T13:41:39;20.5;96.0
22676;DHT22;12521;43.310;21.876;2022-10-31T13:46:39;20.7;96.0
22676;DHT22;12521;43.310;21.876;2022-10-31T13:51:28;20.7;96.0
22676;DHT22;12521;43.310;21.876;2022-10-31T13:56:19;20.7;96.0
22676;DHT22;12521;43.310;21.876;2022-10-31T14:01:19;20.7;96.0
22676;DHT22;12521;43.310;21.876;2022-10-31T14:05:58;20.7;96.0
22676;DHT22;12521;43.310;21.876;2022-10-31T14:10:38;20.7;96.0
22676;DHT22;12521;43.310;21.876;2022-10-31T14:15:31;20.5;96.0
22676;DHT22;12521;43.310;21.876;2022-10-31T14:20:38;20.5;96.0
22676;DHT22;12521;43.310;21.876;2022-10-31T14:25:30;20.4;96.0
22676;DHT22;12521;43.310;21.876;2022-10-31T14:30:18;20.4;96.0
22676;DHT22;12521;43.310;21.876;2022-10-31T14:35:03;20.2;96.0
22676;DHT22;12521;43.310;21.876;2022-10-31T14:40:14;20.2;96.0
22676;DHT22;12521;43.310;21.876;2022-10-31T14:45:45;20.0;96.0
22676;DHT22;12521;43.310;21.876;2022-10-31T14:50:51;20.0;96.0
22676;DHT22;12521;43.310;21.876;2022-10-31T14:55:39;19.6;96.0
22676;DHT22;12521;43.310;21.876;2022-10-31T15:00:33;19.6;96.0
22676;DHT22;12521;43.310;21.876;2022-10-31T15:05:13;19.2;96.0
22676;DHT22;12521;43.310;21.876;2022-10-31T15:09:57;19.2;96.0
22676;DHT22;12521;43.310;21.876;2022-10-31T15:14:55;18.8;96.0
22676;DHT22;12521;43.310;21.876;2022-10-31T15:19:39;18.8;96.0
22676;DHT22;12521;43.310;21.876;2022-10-31T15:24:24;18.4;96.0
22676;DHT22;12521;43.310;21.876;2022-10-31T15:29:16;18.4;96.0
22676;DHT22;12521;43.310;21.876;2022-10-31T15:34:05;18.0;96.0
22676;DHT22;12521;43.310;21.876;2022-10-31T15:39:01;18.0;96.0
22676;DHT22;12521;43.310;21.876;2022-10-31T15:43:39;17.6;96.0
22676;DHT22;12521;43.310;21.876;2022-10-31T15:48:24;17.6;96.0
22676;DHT22;12521;43.310;21.876;2022-10-31T15:53:03;17.2;96.0
22676;DHT22;12521;43.310;21.876;2022-10-31T15:58:02;17.2;96.0
22676;DHT22;12521;43.310;21.876;2022-10-31T16:03:04;16.8;96.0
22676;DHT22;12521;43.310;21.876;2022-10-31T16:08:00;16.8;96.0
22676;DHT22;12521;43.310;21.876;2022-10-31T16:12:45;16.6;96.0
22676;DHT22;12521;43.310;21.876;2022-10-31T16:17:26;16.6;96.0
22676;DHT22;12521;43.310;21.876;2022-10-31T16:22:08;16.3;96.0
22676;DHT22;12521;43.310;21.876;2022-10-31T16:27:19;16.3;96.0
22676;DHT22;12521;43.310;21.876;2022-10-31T16:32:26;16.0;96.0
22676;DHT22;12521;43.310;21.876;2022-10-31T16:37:26;16.0;96.0
22676;DHT22;12521;43.310;21.876;2022-10-31T16:42:04;15.8;96.0
22676;DHT22;12521;43.310;21.876;2022-10-31T16:46:45;15.8;96.0
22676;DHT22;12521;43.310;21.876;2022-10-31T16:51:21;15.8;96.0
22676;DHT22;12521;43.310;21.876;2022-10-31T16:56:01;15.6;96.0
22676;DHT22;12521;43.310;21.876;2022-10-31T17:00:40;15.6;96.0
22676;DHT22;12521;43.310;21.876;2022-10-31T17:05:21;15.5;96.0
22676;DHT22;12521;43.310;21.876;2022-10-31T17:09:59;15.5;96.0
22676;DHT22;12521;43.310;21.876;2022-10-31T17:14:36;15.3;96.0
22676;DHT22;12521;43.310;21.876;2022-10-31T17:19:14;15.3;96.0
22676;DHT22;12521;43.310;21.876;2022-10-31T17:23:51;15.1;96.0
22676;DHT22;12521;43.310;21.876;2022-10-31T17:28:29;15.1;96.0
22676;DHT22;12521;43.310;21.876;2022-10-31T17:33:11;15.0;96.0
22676;DHT22;12521;43.310;21.876;2022-10-31T17:37:52;15.0;96.0
22676;DHT22;12521;43.310;21.876;2022-10-31T17:42:28;14.8;96.0
22676;DHT22;12521;43.310;21.876;2022-10-31T17:47:06;14.8;96.0
22676;DHT22;12521;43.310;21.876;2022-10-31T17:51:43;14.8;96.0
22676;DHT22;12521;43.310;21.876;2022-10-31T17:56:20;14.7;96.0
22676;DHT22;12521;43.310;21.876;2022-10-31T18:00:58;14.7;96.0
22676;DHT22;12521;43.310;21.876;2022-10-31T18:05:35;14.6;96.0
22676;DHT22;12521;43.310;21.876;2022-10-31T18:10:11;14.6;96.0
22676;DHT22;12521;43.310;21.876;2022-10-31T18:14:48;14.5;96.0
22676;DHT22;12521;43.310;21.876;2022-10-31T18:19:27;14.5;96.0
22676;DHT22;12521;43.310;21.876;2022-10-31T18:24:05;14.4;96.0
22676;DHT22;12521;43.310;21.876;2022-10-31T18:28:45;14.4;96.0
22676;DHT22;12521;43.310;21.876;2022-10-31T18:33:21;14.3;96.0
22676;DHT22;12521;43.310;21.876;2022-10-31T18:37:58;14.3;96.0
22676;DHT22;12521;43.310;21.876;2022-10-31T18:42:35;14.2;96.0
22676;DHT22;12521;43.310;21.876;2022-10-31T18:47:12;14.2;96.0
22676;DHT22;12521;43.310;21.876;2022-10-31T18:51:49;14.2;96.0
22676;DHT22;12521;43.310;21.876;2022-10-31T18:56:29;14.0;96.0
22676;DHT22;12521;43.310;21.876;2022-10-31T19:01:08;14.0;96.0
22676;DHT22;12521;43.310;21.876;2022-10-31T19:05:54;13.9;96.0
22676;DHT22;12521;43.310;21.876;2022-10-31T19:10:34;13.9;96.0
22676;DHT22;12521;43.310;21.876;2022-10-31T19:15:14;13.8;96.0
22676;DHT22;12521;43.310;21.876;2022-10-31T19:19:51;13.8;96.0
22676;DHT22;12521;43.310;21.876;2022-10-31T19:24:28;13.7;96.0
22676;DHT22;12521;43.310;21.876;2022-10-31T19:29:05;13.7;96.0
22676;DHT22;12521;43.310;21.876;2022-10-31T19:33:42;13.5;96.0
22676;DHT22;12521;43.310;21.876;2022-10-31T19:38:18;13.5;96.0
22676;DHT22;12521;43.310;21.876;2022-10-31T19:42:57;13.3;96.0
22676;DHT22;12521;43.310;21.876;2022-10-31T19:47:34;13.3;96.0
22676;DHT22;12521;43.310;21.876;2022-10-31T19:52:10;13.3;96.0
22676;DHT22;12521;43.310;21.876;2022-10-31T19:56:47;13.2;96.0
22676;DHT22;12521;43.310;21.876;2022-10-31T20:01:24;13.2;96.0
22676;DHT22;12521;43.310;21.876;2022-10-31T20:06:02;13.0;96.0
22676;DHT22;12521;43.310;21.876;2022-10-31T20:10:58;13.0;96.0
22676;DHT22;12521;43.310;21.876;2022-10-31T20:15:39;12.9;96.0
22676;DHT22;12521;43.310;21.876;2022-10-31T20:20:16;12.9;96.0
22676;DHT22;12521;43.310;21.876;2022-10-31T20:24:52;12.8;96.0
22676;DHT22;12521;43.310;21.876;2022-10-31T20:29:29;12.8;96.0
22676;DHT22;12521;43.310;21.876;2022-10-31T20:34:06;12.7;96.0
22676;DHT22;12521;43.310;21.876;2022-10-31T20:38:44;12.7;96.0
22676;DHT22;12521;43.310;21.876;2022-10-31T20:43:22;12.6;96.0
22676;DHT22;12521;43.310;21.876;2022-10-31T20:47:59;12.6;96.0
22676;DHT22;12521;43.310;21.876;2022-10-31T20:52:35;12.6;96.0
22676;DHT22;12521;43.310;21.876;2022-10-31T20:57:12;12.6;96.0
22676;DHT22;12521;43.310;21.876;2022-10-31T21:01:49;12.6;96.0
22676;DHT22;12521;43.310;21.876;2022-10-31T21:06:27;12.5;96.0
22676;DHT22;12521;43.310;21.876;2022-10-31T21:11:10;12.5;96.0
22676;DHT22;12521;43.310;21.876;2022-10-31T21:15:58;12.4;96.0
22676;DHT22;12521;43.310;21.876;2022-10-31T21:20:42;12.4;96.0
22676;DHT22;12521;43.310;21.876;2022-10-31T21:25:21;12.3;96.0
22676;DHT22;12521;43.310;21.876;2022-10-31T21:29:57;12.3;96.0
22676;DHT22;12521;43.310;21.876;2022-10-31T21:34:34;12.2;96.0
22676;DHT22;12521;43.310;21.876;2022-10-31T21:39:11;12.2;96.0
22676;DHT22;12521;43.310;21.876;2022-10-31T21:43:51;12.0;96.0
22676;DHT22;12521;43.310;21.876;2022-10-31T21:48:30;12.0;96.0
22676;DHT22;12521;43.310;21.876;2022-10-31T21:53:07;12.0;96.0
22676;DHT22;12521;43.310;21.876;2022-10-31T21:57:44;12.0;96.0
22676;DHT22;12521;43.310;21.876;2022-10-31T22:02:21;12.0;96.0
22676;DHT22;12521;43.310;21.876;2022-10-31T22:06:58;11.9;96.0
22676;DHT22;12521;43.310;21.876;2022-10-31T22:11:35;11.9;96.0
22676;DHT22;12521;43.310;21.876;2022-10-31T22:16:16;11.8;96.0
22676;DHT22;12521;43.310;21.876;2022-10-31T22:21:01;11.8;96.0
22676;DHT22;12521;43.310;21.876;2022-10-31T22:25:42;11.7;96.0
22676;DHT22;12521;43.310;21.876;2022-10-31T22:30:18;11.7;96.0
22676;DHT22;12521;43.310;21.876;2022-10-31T22:34:55;11.6;96.0
22676;DHT22;12521;43.310;21.876;2022-10-31T22:39:32;11.6;96.0
22676;DHT22;12521;43.310;21.876;2022-10-31T22:44:09;11.5;96.0
22676;DHT22;12521;43.310;21.876;2022-10-31T22:48:49;11.5;96.0
22676;DHT22;12521;43.310;21.876;2022-10-31T22:53:38;11.5;96.0
22676;DHT22;12521;43.310;21.876;2022-10-31T22:58:19;11.5;96.0
22676;DHT22;12521;43.310;21.876;2022-10-31T23:02:56;11.5;96.0
22676;DHT22;12521;43.310;21.876;2022-10-31T23:07:32;11.5;96.0
22676;DHT22;12521;43.310;21.876;2022-10-31T23:12:09;11.5;96.0
22676;DHT22;12521;43.310;21.876;2022-10-31T23:16:50;11.4;96.0
22676;DHT22;12521;43.310;21.876;2022-10-31T23:21:32;11.4;96.0
22676;DHT22;12521;43.310;21.876;2022-10-31T23:26:14;11.3;96.0
22676;DHT22;12521;43.310;21.876;2022-10-31T23:30:50;11.3;96.0
22676;DHT22;12521;43.310;21.876;2022-10-31T23:35:27;11.2;96.0
22676;DHT22;12521;43.310;21.876;2022-10-31T23:40:06;11.2;96.0
22676;DHT22;12521;43.310;21.876;2022-10-31T23:44:45;11.1;96.0
22676;DHT22;12521;43.310;21.876;2022-10-31T23:49:23;11.1;96.0
22676;DHT22;12521;43.310;21.876;2022-10-31T23:54:00;11.0;96.0
22676;DHT22;12521;43.310;21.876;2022-10-31T23:58:38;11.0;96.0
